AFR19C YBCS-YBBN
Flight info
| Callsign | AFR19C |
|---|---|
| Flight time | N/A |
| Altitude | 35000 |
| Route | DCT CS Y177 BN DCT |
| Aircraft | B77L/H-SDE1E2E3FGHIJ2J3J4J5M1RWXY/LB1D1 |
Departure
| Time | 2026-04-27 11:48 |
|---|---|
| Airport | Cairns International Airport (YBCS) |
Arrival
| Time | N/A |
|---|---|
| Airport | Brisbane International Airport (YBBN) |
| Time | Latitude | Longitude | Altitude | Speed | Heading |
|---|---|---|---|---|---|
| 2026-04-27 11:18 | -16.88059 | 145.74837 | 24 ft | 0 kts | 325° |
| 2026-04-27 11:36 | -16.88058 | 145.74836 | 22 ft | 0 kts | 327° |
| 2026-04-27 11:37 | -16.88057 | 145.74835 | 22 ft | 0 kts | 327° |
| 2026-04-27 11:38 | -16.88044 | 145.74833 | 25 ft | 5 kts | 359° |
| 2026-04-27 11:38 | -16.88017 | 145.74851 | 25 ft | 6 kts | 72° |
| 2026-04-27 11:38 | -16.88013 | 145.74872 | 21 ft | 3 kts | 78° |
| 2026-04-27 11:38 | -16.88010 | 145.74884 | 25 ft | 0 kts | 74° |
| 2026-04-27 11:45 | -16.87928 | 145.74965 | 19 ft | 28 kts | 0° |
| 2026-04-27 11:45 | -16.87745 | 145.74878 | 19 ft | 32 kts | 335° |
| 2026-04-27 11:46 | -16.87555 | 145.74787 | 24 ft | 28 kts | 336° |
| 2026-04-27 11:46 | -16.87376 | 145.74703 | 4 ft | 29 kts | 336° |
| 2026-04-27 11:46 | -16.87189 | 145.74616 | 0 ft | 23 kts | 336° |
| 2026-04-27 11:46 | -16.87020 | 145.74537 | -1 ft | 32 kts | 336° |
| 2026-04-27 11:47 | -16.86774 | 145.74424 | 1 ft | 44 kts | 336° |
| 2026-04-27 11:47 | -16.86641 | 145.74375 | 5 ft | 1 kts | 24° |
| 2026-04-27 11:47 | -16.86655 | 145.74419 | 4 ft | 12 kts | 158° |
| 2026-04-27 11:47 | -16.86822 | 145.74465 | 0 ft | 40 kts | 155° |
| 2026-04-27 11:48 | -16.87279 | 145.74676 | 4 ft | 105 kts | 157° |
| 2026-04-27 11:48 | -16.88136 | 145.75058 | 21 ft | 161 kts | 158° |
| 2026-04-27 11:48 | -16.89233 | 145.75537 | 263 ft | 182 kts | 156° |
| 2026-04-27 11:48 | -16.90457 | 145.76119 | 638 ft | 199 kts | 152° |
| 2026-04-27 11:49 | -16.91459 | 145.77143 | 1122 ft | 211 kts | 113° |
| 2026-04-27 11:49 | -16.91503 | 145.78680 | 1694 ft | 221 kts | 72° |
| 2026-04-27 11:49 | -16.90697 | 145.80122 | 2089 ft | 243 kts | 60° |
| 2026-04-27 11:49 | -16.89675 | 145.81566 | 2593 ft | 254 kts | 51° |
| 2026-04-27 11:50 | -16.88246 | 145.82730 | 3092 ft | 263 kts | 40° |
| 2026-04-27 11:50 | -16.86792 | 145.83848 | 3779 ft | 261 kts | 43° |
| 2026-04-27 11:50 | -16.85367 | 145.85029 | 4381 ft | 259 kts | 51° |
| 2026-04-27 11:50 | -16.84449 | 145.86603 | 4898 ft | 252 kts | 75° |
| 2026-04-27 11:51 | -16.84114 | 145.88364 | 5459 ft | 245 kts | 98° |
| 2026-04-27 11:51 | -16.84762 | 145.89940 | 5968 ft | 243 kts | 133° |
| 2026-04-27 11:51 | -16.87576 | 145.91964 | 7111 ft | 247 kts | 149° |
| 2026-04-27 11:52 | -16.89080 | 145.92856 | 7738 ft | 246 kts | 148° |
| 2026-04-27 11:52 | -16.90566 | 145.93725 | 8236 ft | 252 kts | 149° |
| 2026-04-27 11:52 | -16.92117 | 145.94638 | 8725 ft | 257 kts | 149° |
| 2026-04-27 11:52 | -16.93698 | 145.95572 | 9207 ft | 264 kts | 149° |
| 2026-04-27 11:53 | -16.95284 | 145.96508 | 9808 ft | 265 kts | 149° |
| 2026-04-27 11:53 | -16.96931 | 145.97481 | 10149 ft | 277 kts | 149° |
| 2026-04-27 11:53 | -16.98634 | 145.98487 | 10541 ft | 287 kts | 150° |
| 2026-04-27 11:53 | -17.00407 | 145.99534 | 10913 ft | 298 kts | 151° |
| 2026-04-27 11:54 | -17.02279 | 146.00639 | 11103 ft | 319 kts | 152° |
| 2026-04-27 11:54 | -17.04281 | 146.01821 | 11255 ft | 342 kts | 151° |
| 2026-04-27 11:54 | -17.06394 | 146.03069 | 11432 ft | 362 kts | 152° |
| 2026-04-27 11:54 | -17.08648 | 146.04399 | 11789 ft | 378 kts | 153° |
| 2026-04-27 11:55 | -17.10970 | 146.05771 | 12292 ft | 388 kts | 154° |
| 2026-04-27 11:55 | -17.13323 | 146.07162 | 12908 ft | 396 kts | 153° |
| 2026-04-27 11:55 | -17.15744 | 146.08596 | 13527 ft | 402 kts | 153° |
| 2026-04-27 11:55 | -17.18206 | 146.10054 | 14142 ft | 408 kts | 154° |
| 2026-04-27 11:56 | -17.20694 | 146.11529 | 14768 ft | 411 kts | 154° |
| 2026-04-27 11:56 | -17.23199 | 146.13015 | 15471 ft | 413 kts | 153° |
| 2026-04-27 11:56 | -17.25708 | 146.14503 | 16147 ft | 415 kts | 154° |
| 2026-04-27 11:56 | -17.28236 | 146.16002 | 16742 ft | 420 kts | 153° |
| 2026-04-27 11:57 | -17.30787 | 146.17515 | 17303 ft | 425 kts | 153° |
| 2026-04-27 11:57 | -17.33339 | 146.19028 | 17879 ft | 429 kts | 153° |
| 2026-04-27 11:57 | -17.35960 | 146.20584 | 18031 ft | 431 kts | 153° |
| 2026-04-27 11:57 | -17.38565 | 146.22131 | 18042 ft | 430 kts | 153° |
| 2026-04-27 11:58 | -17.41161 | 146.23673 | 18418 ft | 435 kts | 153° |
| 2026-04-27 11:58 | -17.43810 | 146.25247 | 18965 ft | 437 kts | 153° |
| 2026-04-27 11:58 | -17.46474 | 146.26830 | 19515 ft | 439 kts | 153° |
| 2026-04-27 11:58 | -17.49138 | 146.28414 | 20012 ft | 443 kts | 153° |
| 2026-04-27 11:59 | -17.51810 | 146.30002 | 20475 ft | 447 kts | 153° |
| 2026-04-27 11:59 | -17.54534 | 146.31623 | 20952 ft | 451 kts | 153° |
| 2026-04-27 11:59 | -17.57277 | 146.33255 | 21410 ft | 455 kts | 153° |
| 2026-04-27 11:59 | -17.60045 | 146.34902 | 21869 ft | 459 kts | 153° |
| 2026-04-27 12:00 | -17.68865 | 146.40157 | 23347 ft | 469 kts | 153° |
| 2026-04-27 12:00 | -17.80388 | 146.47032 | 24938 ft | 480 kts | 153° |
| 2026-04-27 12:00 | -17.91978 | 146.53957 | 26545 ft | 490 kts | 153° |
| 2026-04-27 12:00 | -18.03974 | 146.61134 | 28122 ft | 499 kts | 153° |
| 2026-04-27 12:01 | -18.16164 | 146.68441 | 29600 ft | 508 kts | 153° |
| 2026-04-27 12:01 | -18.28457 | 146.75824 | 31263 ft | 505 kts | 153° |
| 2026-04-27 12:01 | -18.40545 | 146.83045 | 32681 ft | 505 kts | 154° |
| 2026-04-27 12:01 | -18.52879 | 146.90252 | 33949 ft | 506 kts | 153° |
| 2026-04-27 12:02 | -18.65218 | 146.97503 | 34844 ft | 509 kts | 154° |
| 2026-04-27 12:02 | -18.77696 | 147.04854 | 35242 ft | 517 kts | 154° |
| 2026-04-27 12:02 | -18.90264 | 147.12273 | 35471 ft | 517 kts | 154° |
| 2026-04-27 12:02 | -19.02895 | 147.19740 | 34915 ft | 512 kts | 154° |
| 2026-04-27 12:03 | -19.15101 | 147.26971 | 34658 ft | 496 kts | 154° |
| 2026-04-27 12:03 | -19.26792 | 147.33906 | 35100 ft | 476 kts | 154° |
| 2026-04-27 12:03 | -19.36940 | 147.39929 | 35306 ft | 486 kts | 154° |
| 2026-04-27 12:03 | -19.39926 | 147.41703 | 35195 ft | 495 kts | 154° |
| 2026-04-27 12:04 | -19.42950 | 147.43500 | 35150 ft | 500 kts | 154° |
| 2026-04-27 12:04 | -19.49024 | 147.47118 | 35089 ft | 505 kts | 154° |
| 2026-04-27 12:05 | -19.55514 | 147.50975 | 35082 ft | 502 kts | 153° |